createdAt,value
2019-06-07T00:00:29.829Z,99733.94
2019-06-07T00:02:39.773Z,99733.94
2019-06-07T00:05:10.011Z,99736.25
2019-06-07T00:07:38.473Z,99729.80
2019-06-07T00:10:07.098Z,99727.64
2019-06-07T00:12:35.487Z,99727.64
2019-06-07T00:15:04.558Z,99724.52
2019-06-07T00:17:33.014Z,99711.80
2019-06-07T00:20:01.397Z,99714.77
2019-06-07T00:22:33.383Z,99714.77
2019-06-07T00:25:00.090Z,99723.09
2019-06-07T00:27:28.490Z,99717.89
2019-06-07T00:29:56.977Z,99710.30
2019-06-07T00:32:25.387Z,99695.44
2019-06-07T00:34:53.786Z,99695.44
2019-06-07T00:37:25.073Z,99686.97
2019-06-07T00:40:12.877Z,99684.34
2019-06-07T00:42:24.084Z,99691.54
2019-06-07T00:44:52.850Z,99687.81
2019-06-07T00:47:24.406Z,99687.64
2019-06-07T00:49:51.472Z,99684.52
2019-06-07T00:53:11.860Z,99687.64
2019-06-07T00:54:50.078Z,99694.10
2019-06-07T00:57:19.884Z,99694.44
2019-06-07T00:59:48.679Z,99688.41
2019-06-07T01:02:20.923Z,99682.84
2019-06-07T01:04:47.369Z,99687.98
2019-06-07T01:07:18.366Z,99686.50
2019-06-07T01:09:45.917Z,99683.67
2019-06-07T01:12:18.096Z,99683.30
2019-06-07T01:14:44.573Z,99683.30
2019-06-07T01:17:39.215Z,99678.99
2019-06-07T01:19:55.311Z,99677.66
2019-06-07T01:22:29.025Z,99677.98
2019-06-07T01:24:54.043Z,99680.22
2019-06-07T01:27:24.193Z,99675.66
2019-06-07T01:29:52.614Z,99675.66
2019-06-07T01:32:23.358Z,99670.66
2019-06-07T01:34:51.216Z,99671.64
2019-06-07T01:37:22.596Z,99667.45
2019-06-07T01:39:49.820Z,99662.66
2019-06-07T01:42:19.902Z,99662.56
2019-06-07T01:44:48.347Z,99662.89
2019-06-07T01:47:17.832Z,99660.06
2019-06-07T01:49:46.934Z,99660.06
2019-06-07T01:52:16.476Z,99669.14
2019-06-07T01:54:58.549Z,99670.91
2019-06-07T01:57:31.098Z,99662.31
2019-06-07T01:59:45.568Z,99638.67
2019-06-07T02:02:13.977Z,99679.42
2019-06-07T02:04:42.497Z,99670.46
2019-06-07T02:07:10.888Z,99670.46
2019-06-07T02:09:39.299Z,99672.21
2019-06-07T02:12:25.050Z,99660.44
2019-06-07T02:14:38.027Z,99660.23
2019-06-07T02:17:06.578Z,99668.99
2019-06-07T02:19:35.002Z,99668.99
2019-06-07T02:22:03.385Z,99665.48
2019-06-07T02:24:35.199Z,99665.48
2019-06-07T02:27:02.153Z,99658.37
2019-06-07T02:29:33.025Z,99667.52
2019-06-07T02:32:00.684Z,99667.52
2019-06-07T02:34:35.994Z,99655.94
2019-06-07T02:36:59.211Z,99650.33
2019-06-07T02:39:28.891Z,99648.44
2019-06-07T02:41:58.006Z,99644.30
2019-06-07T02:44:31.820Z,99637.30
2019-06-07T02:46:56.542Z,99630.02
2019-06-07T02:49:28.467Z,99631.25
2019-06-07T02:51:55.071Z,99627.36
2019-06-07T02:54:24.052Z,99622.20
2019-06-07T02:56:58.600Z,99617.52
2019-06-07T02:59:47.138Z,99615.06
2019-06-07T03:01:54.691Z,99606.72
2019-06-07T03:04:26.437Z,99610.30
2019-06-07T03:06:56.340Z,99610.08
2019-06-07T03:09:26.361Z,99612.63
2019-06-07T03:11:57.309Z,99612.63
2019-06-07T03:14:28.668Z,99612.63
2019-06-07T03:17:18.850Z,99597.09
2019-06-07T03:19:53.084Z,99589.36
2019-06-07T03:22:21.765Z,99592.19
2019-06-07T03:24:51.175Z,99604.72
2019-06-07T03:27:35.015Z,99604.72
2019-06-07T03:29:50.362Z,99612.02
2019-06-07T03:32:18.931Z,99620.56
2019-06-07T03:34:47.347Z,99615.52
2019-06-07T03:37:15.740Z,99614.73
2019-06-07T03:39:44.151Z,99602.18
2019-06-07T03:42:12.569Z,99602.22
2019-06-07T03:44:41.634Z,99598.42
2019-06-07T03:47:10.241Z,99594.02
2019-06-07T03:49:42.129Z,99594.02
2019-06-07T03:52:08.826Z,99591.17
2019-06-07T03:54:39.785Z,99594.59
2019-06-07T03:57:07.345Z,99596.38
2019-06-07T03:59:38.723Z,99593.95
2019-06-07T04:02:05.960Z,99584.70
2019-06-07T04:04:37.810Z,99576.03
2019-06-07T04:07:04.666Z,99563.86
2019-06-07T04:09:37.212Z,99566.31
2019-06-07T04:12:03.303Z,99559.97
2019-06-07T04:14:32.886Z,99550.56
2019-06-07T04:17:01.389Z,99553.58
2019-06-07T04:19:32.215Z,99552.84
2019-06-07T04:22:00.098Z,99541.97
2019-06-07T04:24:28.673Z,99536.67
2019-06-07T04:26:57.276Z,99531.31
2019-06-07T04:29:33.080Z,99530.54
2019-06-07T04:31:55.921Z,99528.66
2019-06-07T04:34:24.374Z,99527.02
2019-06-07T04:36:58.912Z,99525.69
2019-06-07T04:39:24.956Z,99532.39
2019-06-07T04:41:55.393Z,99536.14
2019-06-07T04:44:25.224Z,99537.28
2019-06-07T04:46:57.390Z,99534.52
2019-06-07T04:49:26.291Z,99527.29
2019-06-07T04:51:57.246Z,99523.38
2019-06-07T04:54:25.981Z,99484.27
2019-06-07T04:56:54.425Z,99516.02
2019-06-07T05:00:01.102Z,99516.18
2019-06-07T05:03:45.272Z,99512.98
2019-06-07T05:06:13.683Z,99510.98
2019-06-07T05:08:43.735Z,99519.95
2019-06-07T05:11:12.490Z,99513.39
2019-06-07T05:13:43.992Z,99507.30
2019-06-07T05:16:11.025Z,99506.02
2019-06-07T05:18:41.659Z,99507.27
2019-06-07T05:21:09.639Z,99500.02
2019-06-07T05:26:08.186Z,99496.58
2019-06-07T05:28:40.582Z,99500.97
2019-06-07T05:31:07.983Z,99496.56
2019-06-07T05:33:38.486Z,99505.66
2019-06-07T05:36:07.070Z,99502.61
2019-06-07T05:38:36.091Z,99509.34
2019-06-07T05:41:05.637Z,99508.30
2019-06-07T05:43:36.558Z,99513.36
2019-06-07T05:46:04.693Z,99517.62
2019-06-07T05:48:34.153Z,99506.92
2019-06-07T05:51:02.695Z,99511.42
2019-06-07T05:53:31.680Z,99509.52
2019-06-07T05:56:01.110Z,99500.98
2019-06-07T05:58:29.565Z,99495.69
2019-06-07T06:01:40.945Z,99493.52
2019-06-07T06:03:28.202Z,99495.23
2019-06-07T06:05:56.631Z,99487.96
2019-06-07T06:08:25.309Z,99489.08
2019-06-07T06:10:53.715Z,99478.70
2019-06-07T06:13:22.199Z,99479.73
2019-06-07T06:16:00.591Z,99490.81
2019-06-07T06:18:20.837Z,99489.22
2019-06-07T06:21:11.778Z,99485.61
2019-06-07T06:23:19.550Z,99481.05
2019-06-07T06:25:55.844Z,99483.05
2019-06-07T06:28:18.140Z,99481.78
2019-06-07T06:30:49.924Z,99479.12
2019-06-07T06:33:33.124Z,99478.73
2019-06-07T06:35:49.404Z,99478.39
2019-06-07T06:38:18.275Z,99464.67
2019-06-07T06:40:49.666Z,99463.08
2019-06-07T06:43:16.866Z,99467.75
2019-06-07T06:45:47.828Z,99467.91
2019-06-07T06:48:15.665Z,99464.86
2019-06-07T06:50:46.600Z,99469.48
2019-06-07T06:53:14.197Z,99469.07
2019-06-07T06:55:43.946Z,99466.59
2019-06-07T06:58:12.998Z,99472.55
2019-06-07T07:01:04.922Z,99467.27
2019-06-07T07:03:54.292Z,99460.05
2019-06-07T07:05:54.549Z,99457.66
2019-06-07T07:08:22.748Z,99452.16
2019-06-07T07:10:53.205Z,99447.95
2019-06-07T07:13:21.644Z,99440.70
2019-06-07T07:15:55.258Z,99425.92
2019-06-07T07:18:20.288Z,99425.96
2019-06-07T07:20:53.378Z,99424.52
2019-06-07T07:23:18.837Z,99422.83
2019-06-07T07:25:55.388Z,99414.73
2019-06-07T07:28:17.384Z,99413.17
2019-06-07T07:30:55.262Z,99413.38
2019-06-07T07:33:21.713Z,99408.79
2019-06-07T07:36:11.035Z,99399.53
2019-06-07T07:38:20.474Z,99398.84
2019-06-07T07:41:01.650Z,99396.47
2019-06-07T07:43:19.122Z,99394.69
2019-06-07T07:45:57.290Z,99385.59
2019-06-07T07:48:18.514Z,99378.43
2019-06-07T07:50:49.683Z,99376.27
2019-06-07T07:53:17.446Z,99370.66
2019-06-07T07:55:49.480Z,99361.49
2019-06-07T07:58:15.919Z,99356.30
2019-06-07T08:01:00.188Z,99355.94
2019-06-07T08:03:14.532Z,99355.91
2019-06-07T08:05:45.117Z,99343.00
2019-06-07T08:08:13.215Z,99340.53
2019-06-07T08:10:41.677Z,99339.64
2019-06-07T08:13:27.671Z,99331.48
2019-06-07T08:15:40.429Z,99322.15
2019-06-07T08:18:08.899Z,99323.59
2019-06-07T08:20:37.603Z,99320.81
2019-06-07T08:23:06.001Z,99315.80
2019-06-07T08:25:34.403Z,99306.13
2019-06-07T08:28:02.793Z,99305.57
2019-06-07T08:30:50.787Z,99287.30
2019-06-07T08:33:23.981Z,99287.33
2019-06-07T08:36:03.730Z,99293.00
2019-06-07T08:38:24.814Z,99294.16
2019-06-07T08:40:31.855Z,99293.94
2019-06-07T08:43:15.083Z,99284.77
2019-06-07T08:45:30.619Z,99272.65
2019-06-07T08:48:09.206Z,99274.53
2019-06-07T08:50:54.210Z,99271.54
2019-06-07T08:53:20.144Z,99261.25
2019-06-07T08:55:48.550Z,99260.52
2019-06-07T08:58:16.955Z,99259.17
2019-06-07T09:00:47.377Z,99256.95
2019-06-07T09:03:15.620Z,99250.48
2019-06-07T09:05:44.145Z,99239.41
2019-06-07T09:08:29.071Z,99250.10
2019-06-07T09:10:42.675Z,99241.73
2019-06-07T09:13:12.060Z,99247.48
2019-06-07T09:15:40.636Z,99247.93
2019-06-07T09:18:40.062Z,99241.86
2019-06-07T09:20:45.058Z,99246.98
2019-06-07T09:23:17.144Z,99243.26
2019-06-07T09:25:56.469Z,99250.01
2019-06-07T09:28:19.882Z,99240.23
2019-06-07T09:30:45.649Z,99233.84
2019-06-07T09:33:14.221Z,99237.94
2019-06-07T09:35:42.816Z,99229.09
2019-06-07T09:38:24.283Z,99217.94
2019-06-07T09:40:41.477Z,99221.58
2019-06-07T09:45:40.326Z,99204.16
2019-06-07T09:48:13.454Z,99191.94
2019-06-07T09:50:38.997Z,99197.56
2019-06-07T09:53:21.144Z,99201.76
2019-06-07T09:55:37.575Z,99190.61
2019-06-07T09:58:47.856Z,99180.58
2019-06-07T10:00:41.585Z,99171.06
2019-06-07T10:03:17.772Z,99163.77
2019-06-07T10:05:36.736Z,99159.92
2019-06-07T10:08:40.387Z,99156.80
2019-06-07T10:10:35.583Z,99164.88
2019-06-07T10:13:04.447Z,99155.55
2019-06-07T10:15:34.496Z,99159.73
2019-06-07T10:18:02.963Z,99151.55
2019-06-07T10:20:31.399Z,99169.11
2019-06-07T10:23:01.466Z,99165.61
2019-06-07T10:25:30.122Z,99173.96
2019-06-07T10:28:00.052Z,99160.88
2019-06-07T10:30:28.475Z,99165.61
2019-06-07T10:32:56.889Z,99153.13
2019-06-07T10:35:25.303Z,99152.03
2019-06-07T10:37:53.716Z,99149.42
2019-06-07T10:40:22.189Z,99145.63
2019-06-07T10:42:50.665Z,99143.22
2019-06-07T10:45:19.523Z,99139.58
2019-06-07T10:47:47.921Z,99140.06
2019-06-07T10:50:16.761Z,99137.78
2019-06-07T10:52:45.160Z,99135.40
2019-06-07T10:55:13.903Z,99138.11
2019-06-07T10:57:42.377Z,99140.54
2019-06-07T11:00:13.580Z,99129.89
2019-06-07T11:02:42.164Z,99118.25
2019-06-07T11:05:12.271Z,99108.72
2019-06-07T11:07:40.792Z,99106.54
2019-06-07T11:10:15.579Z,99108.84
2019-06-07T11:12:40.367Z,99108.13
2019-06-07T11:15:09.133Z,99094.63
2019-06-07T11:17:37.687Z,99091.97
2019-06-07T11:20:10.292Z,99073.13
2019-06-07T11:22:39.022Z,99079.29
2019-06-07T11:25:09.208Z,99078.14
2019-06-07T11:27:38.894Z,99066.88
2019-06-07T11:30:08.391Z,99071.73
2019-06-07T11:32:36.950Z,99062.95
2019-06-07T11:35:10.869Z,99054.82
2019-06-07T11:37:39.554Z,99048.78
2019-06-07T11:40:27.793Z,99049.38
2019-06-07T11:42:39.531Z,99046.52
2019-06-07T11:45:10.510Z,99042.75
2019-06-07T11:47:38.895Z,99050.23
2019-06-07T11:50:09.294Z,99046.61
2019-06-07T11:52:38.676Z,99036.09
2019-06-07T11:55:09.827Z,99040.37
2019-06-07T11:57:39.429Z,99034.53
2019-06-07T12:00:11.827Z,99026.43
2019-06-07T12:02:40.411Z,99020.52
2019-06-07T12:05:12.646Z,99023.09
2019-06-07T12:07:43.902Z,99008.27
2019-06-07T12:10:14.773Z,99002.63
2019-06-07T12:12:43.121Z,98994.81
2019-06-07T12:15:12.934Z,98987.23
2019-06-07T12:17:41.427Z,98976.66
2019-06-07T12:20:12.286Z,98975.23
2019-06-07T12:22:40.307Z,98976.89
2019-06-07T12:25:10.432Z,98977.20
2019-06-07T12:27:38.948Z,98974.06
2019-06-07T12:30:11.210Z,98973.96
2019-06-07T12:32:38.658Z,98970.64
2019-06-07T12:35:11.494Z,98959.00
2019-06-07T12:37:44.542Z,98958.94
2019-06-07T12:40:15.659Z,98955.05
2019-06-07T12:42:41.317Z,98946.14
2019-06-07T12:45:10.354Z,98932.42
2019-06-07T12:47:38.821Z,98925.17
2019-06-07T12:50:08.227Z,98921.63
2019-06-07T12:52:38.060Z,98922.19
2019-06-07T12:55:08.002Z,98916.59
2019-06-07T12:57:36.411Z,98913.75
2019-06-07T13:00:10.292Z,98913.47
2019-06-07T13:02:38.766Z,98911.35
2019-06-07T13:05:08.156Z,98916.36
2019-06-07T13:07:36.566Z,98908.53
2019-06-07T13:10:09.841Z,98918.14
2019-06-07T13:12:38.592Z,98913.54
2019-06-07T13:15:08.708Z,98910.14
2019-06-07T13:17:37.675Z,98905.17
2019-06-07T13:20:07.212Z,98915.16
2019-06-07T13:22:35.718Z,98906.53
2019-06-07T13:25:05.693Z,98907.69
2019-06-07T13:27:34.151Z,98907.68
2019-06-07T13:30:09.773Z,98908.12
2019-06-07T13:32:32.741Z,98903.13
2019-06-07T13:35:01.236Z,98905.86
2019-06-07T13:37:29.806Z,98867.71
2019-06-07T13:39:58.593Z,98894.45
2019-06-07T13:42:27.003Z,98887.23
2019-06-07T13:44:55.397Z,98886.83
2019-06-07T13:47:25.236Z,98876.84
2019-06-07T13:49:55.236Z,98879.84
2019-06-07T13:52:24.123Z,98872.67
2019-06-07T13:54:52.537Z,98869.23
2019-06-07T13:57:22.246Z,98867.63
2019-06-07T13:59:50.995Z,98871.06
2019-06-07T14:02:20.674Z,98862.52
2019-06-07T14:04:49.348Z,98851.30
2019-06-07T14:07:19.027Z,98852.13
2019-06-07T14:09:47.691Z,98852.92
2019-06-07T14:12:16.347Z,98845.37
2019-06-07T14:14:44.817Z,98840.89
2019-06-07T14:17:13.227Z,98824.30
2019-06-07T14:19:41.650Z,98818.56
2019-06-07T14:22:10.047Z,98807.30
2019-06-07T14:24:38.473Z,98827.05
2019-06-07T14:27:06.915Z,98824.86
2019-06-07T14:29:38.552Z,98833.95
2019-06-07T14:32:09.742Z,98831.58
2019-06-07T14:34:38.311Z,98838.73
2019-06-07T14:37:07.060Z,98846.73
2019-06-07T14:39:35.571Z,98841.45
2019-06-07T14:42:09.748Z,98838.16
2019-06-07T14:44:34.385Z,98835.28
2019-06-07T14:47:03.062Z,98825.55
2019-06-07T14:49:32.718Z,98830.39
2019-06-07T14:52:01.576Z,98844.37
2019-06-07T14:54:33.501Z,98853.52
2019-06-07T14:57:03.103Z,98868.08
2019-06-07T14:59:30.671Z,98868.97
2019-06-07T15:01:59.550Z,98873.37
2019-06-07T15:04:28.548Z,98863.64
2019-06-07T15:06:57.056Z,98845.56
2019-06-07T15:09:26.745Z,98832.27
2019-06-07T15:11:55.518Z,98843.16
2019-06-07T15:14:24.068Z,98852.98
2019-06-07T15:16:52.562Z,98847.41
2019-06-07T15:19:23.993Z,98852.83
2019-06-07T15:21:51.270Z,98848.66
2019-06-07T15:24:19.677Z,98828.98
2019-06-07T15:26:48.086Z,98816.56
2019-06-07T15:29:16.509Z,98822.55
2019-06-07T15:31:44.897Z,98836.74
2019-06-07T15:34:13.322Z,98851.33
2019-06-07T15:36:41.722Z,98872.14
2019-06-07T15:39:10.200Z,98881.75
2019-06-07T15:41:39.717Z,98882.86
2019-06-07T15:44:08.427Z,98880.13
2019-06-07T15:46:37.937Z,98870.46
2019-06-07T15:49:06.557Z,98858.04
2019-06-07T15:51:36.537Z,98856.73
2019-06-07T15:54:05.542Z,98874.35
2019-06-07T15:56:34.626Z,98869.58
2019-06-07T15:59:03.182Z,98874.67
2019-06-07T16:01:31.618Z,98882.97
2019-06-07T16:04:00.022Z,98940.20
2019-06-07T16:06:28.509Z,98960.67
2019-06-07T16:08:56.926Z,98986.98
2019-06-07T16:11:25.377Z,98973.38
2019-06-07T16:13:53.784Z,98949.86
2019-06-07T16:16:22.203Z,98932.80
2019-06-07T16:18:50.603Z,98939.02
2019-06-07T16:21:19.083Z,98946.42
2019-06-07T16:23:47.643Z,98966.34
2019-06-07T16:26:16.042Z,98966.92
2019-06-07T16:28:44.736Z,98969.11
2019-06-07T16:31:13.091Z,98944.15
2019-06-07T16:33:41.613Z,98968.94
2019-06-07T16:36:10.361Z,98956.33
2019-06-07T16:38:38.786Z,98965.11
2019-06-07T16:41:07.196Z,98970.23
2019-06-07T16:43:36.554Z,98975.66
2019-06-07T16:46:05.334Z,98964.13
2019-06-07T16:48:33.888Z,98966.55
2019-06-07T16:51:02.246Z,98986.64
2019-06-07T16:53:30.737Z,99064.00
2019-06-07T16:55:59.161Z,99055.19
2019-06-07T16:58:27.571Z,99069.59
2019-06-07T17:00:56.322Z,99066.92
2019-06-07T17:03:25.248Z,99066.94
2019-06-07T17:05:53.707Z,99067.42
2019-06-07T17:08:22.158Z,99072.55
2019-06-07T17:13:32.452Z,99082.00
2019-06-07T17:15:49.007Z,99083.38
2019-06-07T17:18:17.505Z,99093.36
2019-06-07T17:20:47.288Z,99095.03
2019-06-07T17:23:15.883Z,99141.02
2019-06-07T17:25:45.435Z,99162.46
2019-06-07T17:28:14.080Z,99162.51
2019-06-07T17:30:43.922Z,99178.73
2019-06-07T17:33:12.543Z,99147.50
2019-06-07T17:35:42.206Z,99244.20
2019-06-07T17:38:10.762Z,99273.13
2019-06-07T17:40:40.653Z,99294.61
2019-06-07T17:43:09.233Z,99310.66
2019-06-07T17:45:37.759Z,99310.78
2019-06-07T17:48:06.287Z,99337.31
2019-06-07T17:50:34.741Z,99341.16
2019-06-07T17:53:03.236Z,99381.44
2019-06-07T17:55:31.718Z,99387.49
2019-06-07T17:58:00.108Z,99396.87
2019-06-07T18:00:33.499Z,99396.83
2019-06-07T18:03:01.761Z,99405.81
2019-06-07T18:05:30.157Z,99420.20
2019-06-07T18:07:59.002Z,99420.49
2019-06-07T18:10:38.503Z,99425.98
2019-06-07T18:13:07.087Z,99433.83
2019-06-07T18:15:52.843Z,99444.84
2019-06-07T18:18:18.644Z,99456.21
2019-06-07T18:20:47.397Z,99463.45
2019-06-07T18:23:15.890Z,99480.55
2019-06-07T18:25:44.382Z,99465.08
2019-06-07T18:28:12.854Z,99459.50
2019-06-07T18:30:41.390Z,99473.92
2019-06-07T18:33:09.874Z,99479.84
2019-06-07T18:35:38.332Z,99496.92
2019-06-07T18:38:10.426Z,99499.73
2019-06-07T18:40:36.932Z,99482.45
2019-06-07T18:43:05.508Z,99477.20
2019-06-07T18:45:33.931Z,99515.03
2019-06-07T18:48:02.391Z,99551.42
2019-06-07T18:50:30.772Z,99613.17
2019-06-07T18:52:59.478Z,99611.02
2019-06-07T18:55:27.882Z,99559.80
2019-06-07T18:57:56.588Z,99588.43
2019-06-07T19:00:25.713Z,99613.53
2019-06-07T19:02:56.138Z,99620.52
2019-06-07T19:05:25.638Z,99599.48
2019-06-07T19:07:54.643Z,99580.11
2019-06-07T19:10:23.493Z,99645.84
2019-06-07T19:12:53.111Z,99670.43
2019-06-07T19:15:22.913Z,99680.58
2019-06-07T19:17:52.162Z,99682.98
2019-06-07T19:20:21.267Z,99660.23
2019-06-07T19:22:50.167Z,99636.72
2019-06-07T19:25:18.913Z,99637.61
2019-06-07T19:27:47.423Z,99634.04
2019-06-07T19:30:16.254Z,99622.40
2019-06-07T19:32:44.734Z,99629.69
2019-06-07T19:35:13.857Z,99639.05
2019-06-07T19:37:42.261Z,99642.22
2019-06-07T19:40:11.357Z,99643.95
2019-06-07T19:42:39.765Z,99650.44
2019-06-07T19:45:29.058Z,99661.42
2019-06-07T19:47:39.260Z,99656.38
2019-06-07T19:50:08.223Z,99668.62
2019-06-07T19:52:36.619Z,99680.97
2019-06-07T19:55:09.822Z,99675.49
2019-06-07T19:57:36.945Z,99688.19
2019-06-07T20:03:34.703Z,99694.58
2019-06-07T20:06:04.462Z,99702.44
2019-06-07T20:08:33.025Z,99708.47
2019-06-07T20:11:02.662Z,99715.28
2019-06-07T20:13:31.182Z,99729.25
2019-06-07T20:16:00.824Z,99716.75
2019-06-07T20:18:29.456Z,99737.75
2019-06-07T20:20:58.522Z,99738.95
2019-06-07T20:23:27.105Z,99762.41
2019-06-07T20:25:55.653Z,99784.00
2019-06-07T20:28:24.158Z,99778.27
2019-06-07T20:30:52.575Z,99745.77
2019-06-07T20:33:20.992Z,99716.45
2019-06-07T20:35:49.406Z,99723.52
2019-06-07T20:38:17.819Z,99731.23
2019-06-07T20:40:46.222Z,99760.03
2019-06-07T20:43:14.619Z,99785.41
2019-06-07T20:45:43.091Z,99794.58
2019-06-07T20:48:11.567Z,99798.14
2019-06-07T20:50:40.047Z,99792.42
2019-06-07T20:53:09.177Z,99772.33
2019-06-07T20:55:37.691Z,99777.73
2019-06-07T20:58:07.315Z,99789.16
2019-06-07T21:00:35.818Z,99799.59
2019-06-07T21:03:05.295Z,99813.72
2019-06-07T21:05:34.114Z,99804.58
2019-06-07T21:08:04.154Z,99811.06
2019-06-07T21:10:32.735Z,99805.77
2019-06-07T21:13:01.976Z,99808.45
2019-06-07T21:15:30.419Z,99816.41
2019-06-07T21:18:00.173Z,99808.76
2019-06-07T21:20:28.647Z,99799.56
2019-06-07T21:22:57.125Z,99787.35
2019-06-07T21:25:25.522Z,99778.22
2019-06-07T21:27:53.937Z,99782.72
2019-06-07T21:30:22.410Z,99779.30
2019-06-07T21:32:50.825Z,99780.78
2019-06-07T21:35:19.376Z,99774.41
2019-06-07T21:37:47.786Z,99770.01
2019-06-07T21:40:16.682Z,99761.58
2019-06-07T21:42:45.157Z,99762.88
2019-06-07T21:45:13.791Z,99762.88
2019-06-07T21:47:42.232Z,99762.41
2019-06-07T21:50:11.113Z,99749.73
2019-06-07T21:52:40.019Z,99747.53
2019-06-07T21:55:11.358Z,99758.67
2019-06-07T21:57:39.887Z,99764.36
2019-06-07T22:00:15.949Z,99775.17
2019-06-07T22:02:44.364Z,99807.80
2019-06-07T22:05:13.915Z,99826.56
2019-06-07T22:07:42.478Z,99862.66
2019-06-07T22:10:12.498Z,99872.52
2019-06-07T22:12:41.083Z,99879.80
2019-06-07T22:15:29.247Z,99873.01
2019-06-07T22:17:40.498Z,99872.00
2019-06-07T22:20:10.828Z,99854.16
2019-06-07T22:22:39.301Z,99851.19
2019-06-07T22:25:09.202Z,99859.27
2019-06-07T22:27:37.737Z,99860.73
2019-06-07T22:30:08.438Z,99869.64
2019-06-07T22:32:37.161Z,99853.64
2019-06-07T22:35:09.011Z,99863.98
2019-06-07T22:37:37.509Z,99873.74
2019-06-07T22:40:08.822Z,99861.92
2019-06-07T22:42:37.332Z,99864.91
2019-06-07T22:45:07.993Z,99855.89
2019-06-07T22:47:36.809Z,99850.47
2019-06-07T22:50:08.415Z,99875.27
2019-06-07T22:52:36.949Z,99894.44
2019-06-07T22:55:07.753Z,99897.10
2019-06-07T22:57:55.678Z,99903.67
2019-06-07T23:00:25.015Z,99906.11
2019-06-07T23:02:53.479Z,99910.63
2019-06-07T23:05:21.886Z,99920.14
2019-06-07T23:07:50.359Z,99923.95
2019-06-07T23:10:19.623Z,99917.99
2019-06-07T23:12:48.166Z,99926.18
2019-06-07T23:15:18.218Z,99922.81
2019-06-07T23:17:47.765Z,99921.28
2019-06-07T23:20:17.866Z,99919.33
2019-06-07T23:22:46.483Z,99922.19
2019-06-07T23:25:18.870Z,99909.89
2019-06-07T23:27:45.438Z,99896.05
2019-06-07T23:30:14.616Z,99880.19
2019-06-07T23:32:43.071Z,99878.85
2019-06-07T23:35:12.785Z,99869.61
2019-06-07T23:37:41.175Z,99887.37
2019-06-07T23:40:11.198Z,99868.30
2019-06-07T23:42:39.768Z,99859.27
2019-06-07T23:45:08.904Z,99872.29
2019-06-07T23:47:37.353Z,99886.44
2019-06-07T23:50:06.976Z,99885.52
2019-06-07T23:52:35.578Z,99884.59
2019-06-07T23:55:06.105Z,99888.52
2019-06-07T23:57:34.581Z,99882.55
